Time;durP1;ratioP1;P1;durP2;ratioP2;P2;SDS_P1;SDS_P2;PMS_P1;PMS_P2;Temp;Humidity;BMP_temperature;BMP_pressure;BME280_temperature;BME280_humidity;BME280_pressure;Samples;Min_cycle;Max_cycle;Signal;HPM_P1;HPM_P2
2022/03/22 00:00:02;;;;;;;24.92;17.80;;;;;;;;;;10291607;28;20441;-91
2022/03/22 00:05:04;;;;;;;23.53;17.33;;;;;;;;;;10273997;28;20413;-91
2022/03/22 00:10:08;;;;;;;22.50;16.30;;;;;;;;;;10281299;28;20457;-91
2022/03/22 00:15:13;;;;;;;20.70;16.52;;;;;;;;;;10246487;28;20418;-90
2022/03/22 00:20:16;;;;;;;20.90;15.30;;;;;;;;;;10279723;28;20426;-90
2022/03/22 00:25:18;;;;;;;20.60;15.55;;;;;;;;;;10279953;28;20423;-90
2022/03/22 00:30:24;;;;;;;21.75;16.40;;;;;;;;;;10276631;28;20481;-92
2022/03/22 00:35:27;;;;;;;21.00;15.05;;;;;;;;;;10278048;28;20418;-89
2022/03/22 00:40:30;;;;;;;22.70;16.50;;;;;;;;;;10258646;28;20426;-90
2022/03/22 00:45:34;;;;;;;19.05;15.27;;;;;;;;;;10273913;28;20410;-89
2022/03/22 00:50:38;;;;;;;20.13;14.65;;;;;;;;;;10280172;28;20494;-90
2022/03/22 00:55:41;;;;;;;19.55;15.13;;;;;;;;;;10269210;28;20494;-89
2022/03/22 01:00:45;;;;;;;21.30;16.27;;;;;;;;;;10297094;28;20788;-91
2022/03/22 01:05:50;;;;;;;22.27;15.90;;;;;;;;;;10294063;28;20412;-90
2022/03/22 01:10:53;;;;;;;23.88;16.30;;;;;;;;;;10271794;28;20475;-90
2022/03/22 01:15:57;;;;;;;23.27;16.80;;;;;;;;;;10269420;28;20441;-90
2022/03/22 01:20:59;;;;;;;23.97;16.73;;;;;;;;;;10266068;28;20480;-90
2022/03/22 01:26:02;;;;;;;21.07;15.50;;;;;;;;;;10288396;28;20419;-90
2022/03/22 01:31:06;;;;;;;20.70;15.77;;;;;;;;;;10292618;28;20445;-89
2022/03/22 01:36:08;;;;;;;21.27;14.97;;;;;;;;;;10299849;28;20408;-91
2022/03/22 01:41:10;;;;;;;19.63;14.27;;;;;;;;;;10306544;28;20422;-91
2022/03/22 01:46:14;;;;;;;18.03;13.90;;;;;;;;;;10301130;28;20442;-90
2022/03/22 01:51:16;;;;;;;19.77;13.70;;;;;;;;;;10285670;28;20461;-91
2022/03/22 01:56:18;;;;;;;17.77;13.10;;;;;;;;;;10263935;28;20501;-91
2022/03/22 02:06:44;;;;;;;18.77;12.80;;;;;;;;;;10283416;28;20741;-91
2022/03/22 02:11:47;;;;;;;17.33;13.13;;;;;;;;;;10306067;28;20541;-90
2022/03/22 02:16:50;;;;;;;16.38;12.25;;;;;;;;;;10288201;28;20502;-90
2022/03/22 02:22:02;;;;;;;16.73;12.50;;;;;;;;;;10303706;28;20421;-91
2022/03/22 02:27:08;;;;;;;17.38;12.20;;;;;;;;;;10285607;28;20465;-89
2022/03/22 02:32:10;;;;;;;15.70;11.82;;;;;;;;;;10266770;28;20422;-91
2022/03/22 02:37:12;;;;;;;17.80;12.57;;;;;;;;;;10278694;28;20896;-89
2022/03/22 02:42:15;;;;;;;21.38;14.70;;;;;;;;;;10280508;28;20430;-90
2022/03/22 02:47:17;;;;;;;19.63;14.30;;;;;;;;;;10261986;28;20418;-92
2022/03/22 02:52:19;;;;;;;17.55;13.38;;;;;;;;;;10283316;28;20422;-90
2022/03/22 02:57:23;;;;;;;17.63;13.02;;;;;;;;;;10275903;28;20416;-90
2022/03/22 03:02:25;;;;;;;15.60;12.38;;;;;;;;;;10281100;28;20517;-90
2022/03/22 03:07:26;;;;;;;17.73;12.53;;;;;;;;;;10265681;28;20513;-90
2022/03/22 03:12:30;;;;;;;16.02;12.23;;;;;;;;;;10282820;28;20410;-89
2022/03/22 03:17:33;;;;;;;16.48;11.82;;;;;;;;;;10275190;28;20522;-90
2022/03/22 03:22:35;;;;;;;17.10;11.45;;;;;;;;;;10275764;28;20425;-88
2022/03/22 03:27:38;;;;;;;17.00;12.27;;;;;;;;;;10294221;28;20847;-90
2022/03/22 03:32:40;;;;;;;16.40;11.63;;;;;;;;;;10305787;28;20505;-88
2022/03/22 03:37:43;;;;;;;17.00;12.53;;;;;;;;;;10307105;28;20497;-90
2022/03/22 03:42:47;;;;;;;16.67;12.27;;;;;;;;;;10267103;28;21271;-90
2022/03/22 03:47:49;;;;;;;15.30;11.65;;;;;;;;;;10280512;28;20452;-90
2022/03/22 03:52:51;;;;;;;18.13;12.07;;;;;;;;;;10268720;28;20561;-89
2022/03/22 03:57:56;;;;;;;17.83;12.52;;;;;;;;;;10289706;28;20471;-89
2022/03/22 04:02:58;;;;;;;17.38;12.50;;;;;;;;;;10295569;28;20927;-91
2022/03/22 04:08:00;;;;;;;13.95;11.60;;;;;;;;;;10302887;28;20420;-90
2022/03/22 04:13:03;;;;;;;17.48;12.20;;;;;;;;;;10284300;28;20835;-90
2022/03/22 04:18:05;;;;;;;16.73;12.50;;;;;;;;;;10285685;28;20966;-90
2022/03/22 04:23:08;;;;;;;17.10;13.25;;;;;;;;;;10293958;28;20424;-90
2022/03/22 04:33:33;;;;;;;16.70;12.93;;;;;;;;;;10312108;28;20399;-91
2022/03/22 04:38:35;;;;;;;16.65;13.52;;;;;;;;;;10308346;28;20463;-90
2022/03/22 04:43:38;;;;;;;16.83;13.23;;;;;;;;;;10339032;28;20457;-91
2022/03/22 04:48:40;;;;;;;19.15;13.13;;;;;;;;;;10313370;28;20415;-91
2022/03/22 04:59:03;;;;;;;20.25;13.63;;;;;;;;;;10304380;28;20398;-90
2022/03/22 05:04:05;;;;;;;20.67;12.67;;;;;;;;;;10309983;28;20514;-90
2022/03/22 05:09:08;;;;;;;20.47;12.90;;;;;;;;;;10267689;28;20976;-90
2022/03/22 05:14:12;;;;;;;18.13;12.10;;;;;;;;;;10311392;28;20511;-90
2022/03/22 05:19:14;;;;;;;16.13;12.00;;;;;;;;;;10284355;28;20408;-91
2022/03/22 05:24:16;;;;;;;17.30;11.93;;;;;;;;;;10319939;28;20436;-88
2022/03/22 05:29:19;;;;;;;18.83;12.67;;;;;;;;;;10262565;28;20414;-89
2022/03/22 05:34:21;;;;;;;17.40;12.10;;;;;;;;;;10276080;28;20457;-90
2022/03/22 05:39:23;;;;;;;16.70;12.05;;;;;;;;;;10310467;28;20501;-90
2022/03/22 05:44:27;;;;;;;16.42;11.82;;;;;;;;;;10274496;28;20637;-90
2022/03/22 05:49:33;;;;;;;24.23;13.30;;;;;;;;;;10295718;28;20501;-88
2022/03/22 05:54:35;;;;;;;20.25;12.20;;;;;;;;;;10292681;28;20430;-89
2022/03/22 05:59:38;;;;;;;17.33;12.57;;;;;;;;;;10273344;28;20424;-89
2022/03/22 06:04:41;;;;;;;19.63;12.70;;;;;;;;;;10250740;28;20418;-89
2022/03/22 06:09:42;;;;;;;21.37;13.33;;;;;;;;;;10257748;28;20423;-90
2022/03/22 06:14:46;;;;;;;17.23;12.60;;;;;;;;;;10272612;28;20408;-91
2022/03/22 06:19:48;;;;;;;23.38;13.88;;;;;;;;;;10273460;28;20499;-92
2022/03/22 06:24:50;;;;;;;22.33;13.38;;;;;;;;;;10261037;28;20464;-90
2022/03/22 06:29:53;;;;;;;19.15;13.02;;;;;;;;;;10276813;28;21227;-86
2022/03/22 06:34:55;;;;;;;20.30;13.80;;;;;;;;;;10280725;28;20899;-88
2022/03/22 06:39:57;;;;;;;21.05;13.75;;;;;;;;;;10264298;28;20616;-92
2022/03/22 06:45:00;;;;;;;19.33;13.43;;;;;;;;;;10271356;28;20430;-89
2022/03/22 06:50:02;;;;;;;22.25;14.18;;;;;;;;;;10292207;28;20401;-90
2022/03/22 06:55:06;;;;;;;20.83;13.70;;;;;;;;;;10305918;28;20407;-88
2022/03/22 07:00:15;;;;;;;20.60;13.75;;;;;;;;;;10290065;28;20442;-90
2022/03/22 07:05:17;;;;;;;18.90;13.03;;;;;;;;;;10274742;28;20427;-89
2022/03/22 07:10:20;;;;;;;21.02;13.10;;;;;;;;;;10281059;28;20652;-91
2022/03/22 07:15:28;;;;;;;21.37;13.10;;;;;;;;;;10319508;28;20427;-89
2022/03/22 07:20:30;;;;;;;18.33;12.13;;;;;;;;;;10291487;28;20552;-91
2022/03/22 07:25:33;;;;;;;19.13;12.27;;;;;;;;;;10282083;28;20756;-90
2022/03/22 07:30:36;;;;;;;20.13;12.03;;;;;;;;;;10278578;28;20951;-91
2022/03/22 07:35:38;;;;;;;12.73;9.95;;;;;;;;;;10299508;28;20459;-91
2022/03/22 07:40:40;;;;;;;16.38;10.13;;;;;;;;;;10300003;28;20425;-90
2022/03/22 07:45:44;;;;;;;25.00;11.50;;;;;;;;;;10287923;28;20406;-89
2022/03/22 07:56:07;;;;;;;17.02;9.68;;;;;;;;;;10311970;28;20419;-90
2022/03/22 08:01:10;;;;;;;11.93;9.18;;;;;;;;;;10266532;28;20704;-90
2022/03/22 08:06:12;;;;;;;16.80;9.77;;;;;;;;;;10273420;28;20416;-91
2022/03/22 08:11:15;;;;;;;14.77;9.20;;;;;;;;;;10233762;28;20409;-89
2022/03/22 08:16:18;;;;;;;12.93;9.23;;;;;;;;;;10281194;28;20510;-90
2022/03/22 08:21:20;;;;;;;13.07;9.50;;;;;;;;;;10232324;28;20709;-90
2022/03/22 08:26:22;;;;;;;12.35;9.20;;;;;;;;;;10285591;28;20440;-90
2022/03/22 08:31:26;;;;;;;12.82;10.02;;;;;;;;;;10294910;28;20908;-89
2022/03/22 08:36:27;;;;;;;11.68;9.15;;;;;;;;;;10238417;28;20471;-90
2022/03/22 08:41:31;;;;;;;11.75;8.77;;;;;;;;;;10283111;28;20816;-88
2022/03/22 08:46:37;;;;;;;12.48;8.48;;;;;;;;;;10284406;28;20415;-89
2022/03/22 08:51:38;;;;;;;11.80;8.27;;;;;;;;;;10277960;28;20802;-90
2022/03/22 08:56:40;;;;;;;11.05;8.52;;;;;;;;;;10272968;28;20444;-89
2022/03/22 09:01:44;;;;;;;13.18;8.65;;;;;;;;;;10273627;28;20926;-89
2022/03/22 09:06:46;;;;;;;15.32;8.70;;;;;;;;;;10254795;28;20415;-90
2022/03/22 09:11:48;;;;;;;10.93;8.23;;;;;;;;;;10260917;28;20409;-90
2022/03/22 09:16:52;;;;;;;11.73;8.77;;;;;;;;;;10274566;28;20639;-90
2022/03/22 09:21:54;;;;;;;12.20;8.77;;;;;;;;;;10271635;28;20422;-90
2022/03/22 09:26:56;;;;;;;12.48;8.43;;;;;;;;;;10309054;28;20414;-92
2022/03/22 09:31:59;;;;;;;13.10;9.60;;;;;;;;;;10292007;28;20527;-93
2022/03/22 09:37:01;;;;;;;13.87;9.33;;;;;;;;;;10269963;28;20519;-93
2022/03/22 09:42:04;;;;;;;14.70;9.32;;;;;;;;;;10322722;28;20427;-93
2022/03/22 09:47:09;;;;;;;13.20;9.45;;;;;;;;;;10324399;28;20435;-93
2022/03/22 09:52:11;;;;;;;12.35;9.50;;;;;;;;;;10316322;28;20756;-93
2022/03/22 09:57:13;;;;;;;14.15;9.90;;;;;;;;;;10285122;28;20419;-91
2022/03/22 10:02:27;;;;;;;13.18;9.63;;;;;;;;;;10307489;28;20439;-94
2022/03/22 10:07:29;;;;;;;12.97;10.20;;;;;;;;;;10296026;28;20420;-93
2022/03/22 10:12:32;;;;;;;12.90;10.20;;;;;;;;;;10279635;28;20503;-94
2022/03/22 10:17:36;;;;;;;11.55;9.90;;;;;;;;;;10307500;28;20431;-93
2022/03/22 10:22:38;;;;;;;13.80;9.90;;;;;;;;;;10319117;28;20512;-93
2022/03/22 10:27:41;;;;;;;12.13;9.77;;;;;;;;;;10269002;28;20420;-95
2022/03/22 10:32:50;;;;;;;13.40;9.70;;;;;;;;;;10303825;28;20416;-94
2022/03/22 10:37:54;;;;;;;12.52;9.73;;;;;;;;;;10251733;28;20422;-93
2022/03/22 10:42:58;;;;;;;11.15;9.15;;;;;;;;;;10267153;28;20436;-94
2022/03/22 10:48:03;;;;;;;13.10;9.55;;;;;;;;;;10274111;28;20408;-94
2022/03/22 10:53:06;;;;;;;14.35;9.93;;;;;;;;;;10268343;28;20416;-93
2022/03/22 10:58:09;;;;;;;10.88;9.00;;;;;;;;;;10282789;28;20584;-93
2022/03/22 11:03:13;;;;;;;11.77;9.10;;;;;;;;;;10289697;28;20504;-93
2022/03/22 11:08:18;;;;;;;12.05;9.50;;;;;;;;;;10274058;28;20916;-93
2022/03/22 11:13:20;;;;;;;12.32;9.10;;;;;;;;;;10278303;28;20472;-94
2022/03/22 11:18:27;;;;;;;12.73;9.45;;;;;;;;;;10248574;28;20420;-95
2022/03/22 11:23:31;;;;;;;12.15;9.20;;;;;;;;;;10304383;28;21180;-93
2022/03/22 11:28:34;;;;;;;11.45;8.38;;;;;;;;;;10255173;28;20413;-93
2022/03/22 11:38:59;;;;;;;11.93;8.70;;;;;;;;;;10266793;28;20469;-93
2022/03/22 11:44:02;;;;;;;18.00;8.90;;;;;;;;;;10281030;28;20474;-94
2022/03/22 11:49:26;;;;;;;12.93;9.40;;;;;;;;;;10265814;28;20983;-94
2022/03/22 11:54:30;;;;;;;11.03;8.37;;;;;;;;;;10241047;28;20418;-94
2022/03/22 11:59:41;;;;;;;8.80;7.60;;;;;;;;;;10279145;28;20509;-94
2022/03/22 12:04:52;;;;;;;10.35;8.45;;;;;;;;;;10268485;28;20728;-94
2022/03/22 12:10:03;;;;;;;14.13;9.25;;;;;;;;;;10279837;28;20490;-94
2022/03/22 12:15:08;;;;;;;9.90;8.15;;;;;;;;;;10254239;28;20402;-93
2022/03/22 12:20:13;;;;;;;9.23;7.93;;;;;;;;;;10311141;28;20406;-96
2022/03/22 12:25:17;;;;;;;12.90;8.30;;;;;;;;;;10286328;28;20526;-95
2022/03/22 12:30:20;;;;;;;9.83;8.37;;;;;;;;;;10284111;28;20430;-95
2022/03/22 12:35:24;;;;;;;9.67;8.20;;;;;;;;;;10264151;28;20421;-91
2022/03/22 12:40:27;;;;;;;11.57;7.85;;;;;;;;;;10281677;28;20649;-92
2022/03/22 12:45:32;;;;;;;12.85;8.60;;;;;;;;;;10270821;28;20439;-92
2022/03/22 12:50:35;;;;;;;10.20;8.63;;;;;;;;;;10259015;28;20497;-91
2022/03/22 12:55:42;;;;;;;10.30;8.70;;;;;;;;;;10248277;28;20921;-91
2022/03/22 13:00:44;;;;;;;12.13;9.10;;;;;;;;;;10270325;28;20453;-87
2022/03/22 13:05:51;;;;;;;10.10;8.35;;;;;;;;;;10276205;28;20920;-90
2022/03/22 13:16:22;;;;;;;12.93;8.27;;;;;;;;;;10271120;28;20390;-90
2022/03/22 13:21:26;;;;;;;9.88;8.30;;;;;;;;;;10281024;28;21315;-89
2022/03/22 13:26:28;;;;;;;11.10;8.82;;;;;;;;;;10266550;28;20792;-89
2022/03/22 13:31:30;;;;;;;10.80;8.50;;;;;;;;;;10285277;28;20407;-90
2022/03/22 13:36:33;;;;;;;10.60;8.60;;;;;;;;;;10277268;28;20426;-90
2022/03/22 13:41:35;;;;;;;10.43;8.77;;;;;;;;;;10277228;28;20509;-88
2022/03/22 13:46:37;;;;;;;10.38;8.88;;;;;;;;;;10269906;28;20433;-90
2022/03/22 13:51:41;;;;;;;11.05;8.93;;;;;;;;;;10249593;28;20421;-89
2022/03/22 13:56:42;;;;;;;10.27;8.77;;;;;;;;;;10275549;28;20469;-89
2022/03/22 14:01:46;;;;;;;10.48;8.82;;;;;;;;;;10268343;28;20489;-89
2022/03/22 14:06:50;;;;;;;10.73;8.40;;;;;;;;;;10266396;28;20430;-88
2022/03/22 14:11:52;;;;;;;10.17;8.37;;;;;;;;;;10260825;28;20800;-89
2022/03/22 14:16:55;;;;;;;10.77;8.50;;;;;;;;;;10258256;28;20408;-88
2022/03/22 14:21:58;;;;;;;12.48;9.00;;;;;;;;;;10267378;28;20432;-89
2022/03/22 14:27:01;;;;;;;14.38;10.82;;;;;;;;;;10249935;28;20426;-89
2022/03/22 14:32:03;;;;;;;11.73;9.93;;;;;;;;;;10262327;28;20412;-90
2022/03/22 14:37:06;;;;;;;12.02;9.60;;;;;;;;;;10266647;28;20480;-89
2022/03/22 14:42:10;;;;;;;12.88;9.50;;;;;;;;;;10265038;28;20598;-88
2022/03/22 14:47:12;;;;;;;11.23;10.02;;;;;;;;;;10275152;28;20410;-89
2022/03/22 15:02:54;;;;;;;10.60;9.50;;;;;;;;;;10279319;28;20418;-88
2022/03/22 15:07:57;;;;;;;12.05;9.65;;;;;;;;;;10280873;28;20416;-92
2022/03/22 15:12:59;;;;;;;13.77;9.90;;;;;;;;;;10276834;28;20679;-92
2022/03/22 15:18:02;;;;;;;11.07;9.68;;;;;;;;;;10288501;28;20507;-94
2022/03/22 15:23:06;;;;;;;11.50;10.30;;;;;;;;;;10274396;28;20467;-93
2022/03/22 15:28:09;;;;;;;11.15;9.65;;;;;;;;;;10262107;28;20427;-91
2022/03/22 15:33:12;;;;;;;11.93;10.00;;;;;;;;;;10244875;28;20433;-91
2022/03/22 15:38:17;;;;;;;11.20;9.40;;;;;;;;;;10266364;28;20432;-90
2022/03/22 15:43:22;;;;;;;11.50;9.97;;;;;;;;;;10259870;28;20422;-93
2022/03/22 15:48:24;;;;;;;12.10;9.90;;;;;;;;;;10268609;28;20428;-92
2022/03/22 15:53:27;;;;;;;12.88;10.05;;;;;;;;;;10290126;28;20475;-93
2022/03/22 15:58:29;;;;;;;11.77;10.30;;;;;;;;;;10299494;28;20884;-92
2022/03/22 16:03:31;;;;;;;10.80;9.70;;;;;;;;;;10295769;28;20448;-93
2022/03/22 16:08:35;;;;;;;12.17;9.90;;;;;;;;;;10273434;28;20953;-91
2022/03/22 16:13:37;;;;;;;12.93;10.40;;;;;;;;;;10298481;28;20446;-92
2022/03/22 16:18:39;;;;;;;12.68;9.48;;;;;;;;;;10253332;28;20514;-92
2022/03/22 16:23:43;;;;;;;12.05;9.90;;;;;;;;;;10273125;28;20526;-92
2022/03/22 16:28:45;;;;;;;12.63;10.30;;;;;;;;;;10254592;28;20489;-92
2022/03/22 16:39:24;;;;;;;10.95;9.55;;;;;;;;;;10270565;28;20399;-93
2022/03/22 16:44:30;;;;;;;14.32;10.20;;;;;;;;;;10272486;28;20796;-91
2022/03/22 16:49:33;;;;;;;12.93;10.07;;;;;;;;;;10278741;28;20416;-92
2022/03/22 16:54:36;;;;;;;15.00;11.02;;;;;;;;;;10278312;28;20420;-91
2022/03/22 16:59:39;;;;;;;18.65;10.45;;;;;;;;;;10267518;28;20435;-91
2022/03/22 17:04:41;;;;;;;16.17;11.15;;;;;;;;;;10276238;28;20433;-89
2022/03/22 17:09:44;;;;;;;14.83;11.67;;;;;;;;;;10281483;28;20437;-91
2022/03/22 17:14:47;;;;;;;14.13;10.90;;;;;;;;;;10299992;28;20527;-91
2022/03/22 17:19:50;;;;;;;17.63;10.80;;;;;;;;;;10287983;28;20435;-91
2022/03/22 17:24:53;;;;;;;15.90;10.95;;;;;;;;;;10266975;28;20450;-91
2022/03/22 17:29:55;;;;;;;17.73;11.88;;;;;;;;;;10285208;28;20900;-91
2022/03/22 17:34:57;;;;;;;13.50;11.33;;;;;;;;;;10301575;28;20434;-91
2022/03/22 17:40:00;;;;;;;16.00;12.45;;;;;;;;;;10305464;28;20459;-90
2022/03/22 17:45:02;;;;;;;37.70;28.60;;;;;;;;;;10304990;28;20456;-89
2022/03/22 17:50:06;;;;;;;26.47;21.80;;;;;;;;;;10293279;28;20410;-91
2022/03/22 17:55:11;;;;;;;35.20;24.30;;;;;;;;;;10277606;28;20446;-91
2022/03/22 18:00:14;;;;;;;32.08;20.27;;;;;;;;;;10257062;28;20503;-92
2022/03/22 18:05:18;;;;;;;28.35;18.60;;;;;;;;;;10253011;28;20434;-92
2022/03/22 18:10:22;;;;;;;27.75;17.77;;;;;;;;;;10282563;28;20886;-89
2022/03/22 18:15:24;;;;;;;30.77;18.40;;;;;;;;;;10274066;28;20417;-91
2022/03/22 18:20:26;;;;;;;36.38;22.92;;;;;;;;;;10286089;28;20454;-91
2022/03/22 18:25:30;;;;;;;43.13;34.60;;;;;;;;;;10264630;28;20846;-89
2022/03/22 18:30:32;;;;;;;49.08;40.00;;;;;;;;;;10250146;28;20408;-91
2022/03/22 18:35:34;;;;;;;34.13;24.48;;;;;;;;;;10265849;28;20518;-91
2022/03/22 18:40:38;;;;;;;44.35;30.08;;;;;;;;;;10261202;28;20423;-92
2022/03/22 18:45:39;;;;;;;68.47;50.67;;;;;;;;;;10262780;28;20531;-90
2022/03/22 18:50:41;;;;;;;62.38;42.38;;;;;;;;;;10264173;28;20426;-90
2022/03/22 18:55:45;;;;;;;100.30;66.47;;;;;;;;;;10260924;28;20410;-93
2022/03/22 19:00:47;;;;;;;71.97;45.45;;;;;;;;;;10287684;28;20419;-91
2022/03/22 19:05:49;;;;;;;71.47;47.63;;;;;;;;;;10268599;28;20428;-92
2022/03/22 19:10:53;;;;;;;73.45;49.78;;;;;;;;;;10270256;28;20511;-93
2022/03/22 19:15:55;;;;;;;70.70;43.83;;;;;;;;;;10267499;28;21041;-92
2022/03/22 19:20:59;;;;;;;210.10;98.78;;;;;;;;;;10272301;28;20428;-92
2022/03/22 19:26:03;;;;;;;249.07;111.07;;;;;;;;;;10274240;28;20419;-92
2022/03/22 19:36:25;;;;;;;67.88;42.63;;;;;;;;;;10260825;28;20501;-92
2022/03/22 19:41:29;;;;;;;52.08;32.15;;;;;;;;;;10249141;28;21426;-93
2022/03/22 19:46:31;;;;;;;47.73;32.67;;;;;;;;;;10255760;28;20423;-93
2022/03/22 19:51:34;;;;;;;46.92;33.90;;;;;;;;;;10268115;28;20420;-93
2022/03/22 19:56:37;;;;;;;47.80;33.67;;;;;;;;;;10266376;28;20463;-92
2022/03/22 20:01:41;;;;;;;45.13;30.65;;;;;;;;;;10265860;28;20534;-93
2022/03/22 20:06:43;;;;;;;41.20;29.70;;;;;;;;;;10256950;28;20428;-93
2022/03/22 20:11:47;;;;;;;46.97;34.17;;;;;;;;;;10270236;28;21123;-94
2022/03/22 20:16:50;;;;;;;47.30;32.33;;;;;;;;;;10236828;28;20509;-95
2022/03/22 20:21:51;;;;;;;54.78;34.47;;;;;;;;;;10271982;28;20522;-95
2022/03/22 20:26:55;;;;;;;54.80;34.90;;;;;;;;;;10265645;28;20454;-89
2022/03/22 20:31:56;;;;;;;58.90;36.40;;;;;;;;;;10263797;28;20415;-90
2022/03/22 20:36:58;;;;;;;62.35;38.72;;;;;;;;;;10257484;28;20518;-89
2022/03/22 20:42:02;;;;;;;50.72;35.47;;;;;;;;;;10244011;28;20432;-88
2022/03/22 20:47:04;;;;;;;50.28;35.53;;;;;;;;;;10272235;28;20438;-89
2022/03/22 20:52:07;;;;;;;53.55;38.00;;;;;;;;;;10279331;28;20529;-88
2022/03/22 21:02:29;;;;;;;43.85;32.15;;;;;;;;;;10273340;28;20412;-90
2022/03/22 21:07:31;;;;;;;47.80;34.35;;;;;;;;;;10279805;28;20431;-88
2022/03/22 21:12:34;;;;;;;47.73;33.30;;;;;;;;;;10310345;28;20413;-89
2022/03/22 21:17:36;;;;;;;50.15;34.05;;;;;;;;;;10299289;28;20412;-91
2022/03/22 21:22:38;;;;;;;45.17;33.17;;;;;;;;;;10262591;28;20542;-90
2022/03/22 21:27:42;;;;;;;44.17;32.20;;;;;;;;;;10280784;28;20511;-91
2022/03/22 21:32:44;;;;;;;44.08;31.45;;;;;;;;;;10279199;28;20504;-88
2022/03/22 21:37:46;;;;;;;50.78;33.85;;;;;;;;;;10281724;28;20493;-90
2022/03/22 21:42:49;;;;;;;43.90;31.50;;;;;;;;;;10246464;28;20524;-91
2022/03/22 21:47:51;;;;;;;45.10;32.22;;;;;;;;;;10232233;28;20510;-93
2022/03/22 21:52:53;;;;;;;46.07;33.73;;;;;;;;;;10230639;28;20479;-93
2022/03/22 21:57:56;;;;;;;50.10;33.23;;;;;;;;;;10230646;28;20503;-93
2022/03/22 22:02:58;;;;;;;46.03;32.65;;;;;;;;;;10215295;28;20967;-90
2022/03/22 22:08:00;;;;;;;51.00;32.40;;;;;;;;;;10220309;28;20431;-92
2022/03/22 22:13:04;;;;;;;44.43;32.23;;;;;;;;;;10226468;28;20961;-93
2022/03/22 22:18:06;;;;;;;42.93;31.27;;;;;;;;;;10239117;28;20530;-92
2022/03/22 22:23:08;;;;;;;45.95;32.47;;;;;;;;;;10205795;28;20786;-92
2022/03/22 22:28:12;;;;;;;46.80;32.65;;;;;;;;;;10216236;28;20411;-92
2022/03/22 22:38:32;;;;;;;44.00;31.60;;;;;;;;;;10231051;28;20774;-91
2022/03/22 22:43:36;;;;;;;43.25;31.98;;;;;;;;;;10266596;28;20797;-92
2022/03/22 22:48:38;;;;;;;45.28;31.70;;;;;;;;;;10257630;28;20482;-93
2022/03/22 22:53:40;;;;;;;44.85;31.00;;;;;;;;;;10270685;28;20430;-91
2022/03/22 22:58:43;;;;;;;44.90;32.50;;;;;;;;;;10264191;28;20416;-91
2022/03/22 23:03:45;;;;;;;42.42;31.17;;;;;;;;;;10272515;28;20863;-90
2022/03/22 23:14:08;;;;;;;44.40;31.70;;;;;;;;;;10281628;28;20407;-90
2022/03/22 23:19:11;;;;;;;43.20;30.53;;;;;;;;;;10277236;28;20416;-90
2022/03/22 23:24:14;;;;;;;37.53;27.73;;;;;;;;;;10277959;28;20527;-91
2022/03/22 23:29:17;;;;;;;40.57;29.03;;;;;;;;;;10292848;28;20446;-91
2022/03/22 23:34:19;;;;;;;38.28;26.42;;;;;;;;;;10291818;28;20531;-90
2022/03/22 23:39:21;;;;;;;37.00;26.30;;;;;;;;;;10264679;28;20412;-90
2022/03/22 23:44:28;;;;;;;35.23;26.03;;;;;;;;;;10299300;28;20583;-90
2022/03/22 23:49:30;;;;;;;36.47;25.38;;;;;;;;;;10309723;28;20453;-90
2022/03/22 23:54:33;;;;;;;36.65;24.45;;;;;;;;;;10286991;28;20424;-90
2022/03/22 23:59:36;;;;;;;37.33;27.27;;;;;;;;;;10289699;28;20449;-90
